createdAt,value
2024-02-29T00:01:57.186Z,49.13
2024-02-29T00:04:27.448Z,49.42
2024-02-29T00:06:59.399Z,49.36
2024-02-29T00:09:27.413Z,49.52
2024-02-29T00:11:56.094Z,49.25
2024-02-29T00:14:24.148Z,48.84
2024-02-29T00:16:52.413Z,49.08
2024-02-29T00:19:21.584Z,49.05
2024-02-29T00:21:50.015Z,48.91
2024-02-29T00:24:17.871Z,48.70
2024-02-29T00:26:46.023Z,49.29
2024-02-29T00:29:14.000Z,48.92
2024-02-29T00:31:46.021Z,49.45
2024-02-29T00:34:14.242Z,49.64
2024-02-29T00:36:42.576Z,49.57
2024-02-29T00:39:14.870Z,49.96
2024-02-29T00:41:43.762Z,49.04
2024-02-29T00:44:12.078Z,49.00
2024-02-29T00:46:42.730Z,48.56
2024-02-29T00:49:10.882Z,48.80
2024-02-29T00:51:39.744Z,49.37
2024-02-29T00:54:07.662Z,49.70
2024-02-29T00:56:36.073Z,49.22
2024-02-29T00:59:04.131Z,49.29
2024-02-29T01:01:35.055Z,49.11
2024-02-29T01:04:03.200Z,49.15
2024-02-29T01:06:31.460Z,48.96
2024-02-29T01:08:59.538Z,49.19
2024-02-29T01:11:27.809Z,48.92
2024-02-29T01:13:55.793Z,49.27
2024-02-29T01:16:23.956Z,49.32
2024-02-29T01:18:52.070Z,49.10
2024-02-29T01:21:20.205Z,49.65
2024-02-29T01:23:48.155Z,49.65
2024-02-29T01:26:16.447Z,49.67
2024-02-29T01:28:45.747Z,49.34
2024-02-29T01:31:14.806Z,50.19
2024-02-29T01:33:42.894Z,50.28
2024-02-29T01:36:11.097Z,49.99
2024-02-29T01:38:39.944Z,50.17
2024-02-29T01:41:08.172Z,50.10
2024-02-29T01:43:36.511Z,49.45
2024-02-29T01:46:11.373Z,50.07
2024-02-29T01:48:40.126Z,49.76
2024-02-29T01:51:10.047Z,50.01
2024-02-29T01:53:39.186Z,50.20
2024-02-29T01:56:08.331Z,51.28
2024-02-29T01:58:37.212Z,50.59
2024-02-29T02:01:05.879Z,50.65
2024-02-29T02:03:34.867Z,51.19
2024-02-29T02:06:03.037Z,51.19
2024-02-29T02:08:33.297Z,51.73
2024-02-29T02:11:01.930Z,52.09
2024-02-29T02:13:29.961Z,51.98
2024-02-29T02:15:58.261Z,52.30
2024-02-29T02:18:26.245Z,52.43
2024-02-29T02:20:57.607Z,52.69
2024-02-29T02:23:25.558Z,52.46
2024-02-29T02:25:58.965Z,53.76
2024-02-29T02:28:27.262Z,53.94
2024-02-29T02:30:55.581Z,53.67
2024-02-29T02:33:23.569Z,54.65
2024-02-29T02:35:51.728Z,53.61
2024-02-29T02:38:19.662Z,53.79
2024-02-29T02:40:47.829Z,54.57
2024-02-29T02:43:18.610Z,54.28
2024-02-29T02:45:47.006Z,54.62
2024-02-29T02:48:15.948Z,55.20
2024-02-29T02:50:44.785Z,54.72
2024-02-29T02:53:12.703Z,55.78
2024-02-29T02:55:41.106Z,55.30
2024-02-29T02:58:08.981Z,55.79
2024-02-29T03:00:37.291Z,54.83
2024-02-29T03:03:05.276Z,54.97
2024-02-29T03:05:33.746Z,56.05
2024-02-29T03:08:01.961Z,56.37
2024-02-29T03:10:30.187Z,56.29
2024-02-29T03:12:58.027Z,56.03
2024-02-29T03:15:26.255Z,56.12
2024-02-29T03:17:57.431Z,56.73
2024-02-29T03:20:25.684Z,57.09
2024-02-29T03:22:53.471Z,56.11
2024-02-29T03:25:21.662Z,55.80
2024-02-29T03:27:53.195Z,55.94
2024-02-29T03:30:21.461Z,57.11
2024-02-29T03:32:49.399Z,57.15
2024-02-29T03:35:17.811Z,56.59
2024-02-29T03:37:45.595Z,56.70
2024-02-29T03:40:14.060Z,56.46
2024-02-29T03:42:44.335Z,56.75
2024-02-29T03:45:12.643Z,57.00
2024-02-29T03:47:40.651Z,56.87
2024-02-29T03:50:11.667Z,57.34
2024-02-29T03:52:40.093Z,56.90
2024-02-29T03:55:09.582Z,57.82
2024-02-29T03:57:37.683Z,58.05
2024-02-29T04:00:12.606Z,58.25
2024-02-29T04:02:43.643Z,57.69
2024-02-29T04:05:12.051Z,57.79
2024-02-29T04:07:44.157Z,57.21
2024-02-29T04:10:12.788Z,57.64
2024-02-29T04:12:40.808Z,57.10
2024-02-29T04:15:09.843Z,57.61
2024-02-29T04:17:37.685Z,56.84
2024-02-29T04:20:07.261Z,57.26
2024-02-29T04:22:35.302Z,57.20
2024-02-29T04:25:03.809Z,56.43
2024-02-29T04:27:31.811Z,56.92
2024-02-29T04:30:00.237Z,57.19
2024-02-29T04:32:28.038Z,56.38
2024-02-29T04:34:56.416Z,57.35
2024-02-29T04:37:24.222Z,57.78
2024-02-29T04:39:52.610Z,56.74
2024-02-29T04:42:23.439Z,57.02
2024-02-29T04:44:51.611Z,56.46
2024-02-29T04:47:20.192Z,56.55
2024-02-29T04:49:48.730Z,56.31
2024-02-29T04:52:16.764Z,56.64
2024-02-29T04:54:45.282Z,56.59
2024-02-29T04:57:13.325Z,56.49
2024-02-29T04:59:41.781Z,56.10
2024-02-29T05:02:11.266Z,56.33
2024-02-29T05:04:39.468Z,56.72
2024-02-29T05:07:07.428Z,56.59
2024-02-29T05:09:35.706Z,56.25
2024-02-29T05:12:03.735Z,56.62
2024-02-29T05:20:16.215Z,55.98
2024-02-29T05:23:05.026Z,55.91
2024-02-29T05:25:33.471Z,55.90
2024-02-29T05:28:03.171Z,56.64
2024-02-29T05:30:31.310Z,55.51
2024-02-29T05:32:59.558Z,55.49
2024-02-29T05:35:27.807Z,55.39
2024-02-29T05:37:58.452Z,55.40
2024-02-29T05:40:30.964Z,54.97
2024-02-29T05:42:59.258Z,54.62
2024-02-29T05:45:27.174Z,54.24
2024-02-29T05:47:55.495Z,54.60
2024-02-29T05:50:23.453Z,54.35
2024-02-29T05:52:51.876Z,54.74
2024-02-29T05:55:21.901Z,53.62
2024-02-29T05:57:50.248Z,53.85
2024-02-29T06:00:23.558Z,53.45
2024-02-29T06:02:53.204Z,52.79
2024-02-29T06:05:21.514Z,53.16
2024-02-29T06:07:49.730Z,53.19
2024-02-29T06:10:20.861Z,52.83
2024-02-29T06:12:49.336Z,52.87
2024-02-29T06:15:17.299Z,53.46
2024-02-29T06:17:45.715Z,53.32
2024-02-29T06:20:14.296Z,53.04
2024-02-29T06:22:43.262Z,53.57
2024-02-29T06:25:11.785Z,52.95
2024-02-29T06:27:41.031Z,52.91
2024-02-29T06:30:10.404Z,52.86
2024-02-29T06:32:42.020Z,53.35
2024-02-29T06:35:10.672Z,53.20
2024-02-29T06:37:43.053Z,52.79
2024-02-29T06:40:13.159Z,52.67
2024-02-29T06:42:42.551Z,52.87
2024-02-29T06:45:11.847Z,52.43
2024-02-29T06:47:44.317Z,52.73
2024-02-29T06:50:13.729Z,52.61
2024-02-29T06:52:42.306Z,52.09
2024-02-29T06:55:10.718Z,52.46
2024-02-29T06:57:39.343Z,52.01
2024-02-29T07:00:07.892Z,51.99
2024-02-29T07:02:36.237Z,52.14
2024-02-29T07:05:04.627Z,52.32
2024-02-29T07:07:33.320Z,51.69
2024-02-29T07:10:01.528Z,51.62
2024-02-29T07:12:30.094Z,51.33
2024-02-29T07:14:58.251Z,51.00
2024-02-29T07:17:26.440Z,51.24
2024-02-29T07:19:54.441Z,51.12
2024-02-29T07:22:22.776Z,51.14
2024-02-29T07:24:50.757Z,50.82
2024-02-29T07:27:19.008Z,50.52
2024-02-29T07:29:48.622Z,50.20
2024-02-29T07:32:16.813Z,50.49
2024-02-29T07:34:44.712Z,50.51
2024-02-29T07:37:12.967Z,50.45
2024-02-29T07:39:41.053Z,50.11
2024-02-29T07:42:10.566Z,50.28
2024-02-29T07:44:38.592Z,50.33
2024-02-29T07:47:06.839Z,49.77
2024-02-29T07:49:34.685Z,49.65
2024-02-29T07:52:03.037Z,49.34
2024-02-29T07:54:33.706Z,49.67
2024-02-29T07:57:05.772Z,49.55
2024-02-29T07:59:33.838Z,49.33
2024-02-29T08:02:02.463Z,49.44
2024-02-29T08:04:30.549Z,49.56
2024-02-29T08:06:58.773Z,49.25
2024-02-29T08:09:26.793Z,48.84
2024-02-29T08:11:55.987Z,49.07
2024-02-29T08:14:25.731Z,49.42
2024-02-29T08:16:54.290Z,49.36
2024-02-29T08:19:22.643Z,49.40
2024-02-29T08:21:53.818Z,49.05
2024-02-29T08:24:22.086Z,49.20
2024-02-29T08:26:50.308Z,49.06
2024-02-29T08:29:21.128Z,48.71
2024-02-29T08:31:49.702Z,48.60
2024-02-29T08:34:17.780Z,48.57
2024-02-29T08:36:46.438Z,49.03
2024-02-29T08:39:14.462Z,48.46
2024-02-29T08:41:42.745Z,48.11
2024-02-29T08:44:10.615Z,47.83
2024-02-29T08:46:39.019Z,47.51
2024-02-29T08:49:08.919Z,47.86
2024-02-29T08:51:37.458Z,48.15
2024-02-29T08:54:07.536Z,48.09
2024-02-29T08:56:36.625Z,48.21
2024-02-29T08:59:04.488Z,47.66
2024-02-29T09:01:32.900Z,47.22
2024-02-29T09:04:01.015Z,47.91
2024-02-29T09:06:39.899Z,48.00
2024-02-29T09:09:09.830Z,47.52
2024-02-29T09:11:39.470Z,47.60
2024-02-29T09:14:07.426Z,46.64
2024-02-29T09:16:35.721Z,46.90
2024-02-29T09:19:04.458Z,47.00
2024-02-29T09:21:33.989Z,46.46
2024-02-29T09:24:01.966Z,46.79
2024-02-29T09:26:30.320Z,45.86
2024-02-29T09:28:58.241Z,45.91
2024-02-29T09:31:26.588Z,46.59
2024-02-29T09:33:55.126Z,46.33
2024-02-29T09:36:23.339Z,46.68
2024-02-29T09:38:51.265Z,46.15
2024-02-29T09:43:54.927Z,46.61
2024-02-29T09:46:23.652Z,45.67
2024-02-29T09:48:53.692Z,45.88
2024-02-29T09:51:23.177Z,45.83
2024-02-29T09:53:54.066Z,44.86
2024-02-29T09:56:24.661Z,45.33
2024-02-29T09:58:53.041Z,44.62
2024-02-29T10:01:21.653Z,44.29
2024-02-29T10:03:50.256Z,44.53
2024-02-29T10:06:18.541Z,44.62
2024-02-29T10:08:46.997Z,44.39
2024-02-29T10:11:15.024Z,44.38
2024-02-29T10:13:43.471Z,44.68
2024-02-29T10:16:15.262Z,45.01
2024-02-29T10:18:43.740Z,44.50
2024-02-29T10:21:12.805Z,43.91
2024-02-29T10:23:41.591Z,43.12
2024-02-29T10:26:10.436Z,43.54
2024-02-29T10:28:38.721Z,42.84
2024-02-29T10:31:06.620Z,43.62
2024-02-29T10:33:39.925Z,42.70
2024-02-29T10:36:14.884Z,42.64
2024-02-29T10:38:43.192Z,43.33
2024-02-29T10:41:12.473Z,42.70
2024-02-29T10:43:45.342Z,42.60
2024-02-29T10:46:16.246Z,42.71
2024-02-29T10:48:59.440Z,42.97
2024-02-29T10:51:36.994Z,42.51
2024-02-29T10:54:16.464Z,42.50
2024-02-29T10:56:47.875Z,42.00
2024-02-29T10:59:20.559Z,41.92
2024-02-29T11:01:49.633Z,41.56
2024-02-29T11:04:18.173Z,42.17
2024-02-29T11:06:48.806Z,41.48
2024-02-29T11:09:28.590Z,41.63
2024-02-29T11:12:15.037Z,41.62
2024-02-29T11:14:49.630Z,41.10
2024-02-29T11:17:18.512Z,41.33
2024-02-29T11:19:57.770Z,41.38
2024-02-29T11:22:37.373Z,40.71
2024-02-29T11:25:12.416Z,41.04
2024-02-29T11:27:54.675Z,41.12
2024-02-29T11:30:25.638Z,40.32
2024-02-29T11:32:54.119Z,40.84
2024-02-29T11:35:23.261Z,40.92
2024-02-29T11:37:54.947Z,41.25
2024-02-29T11:40:25.734Z,41.17
2024-02-29T11:42:58.773Z,41.08
2024-02-29T11:45:27.032Z,41.20
2024-02-29T11:47:55.029Z,40.59
2024-02-29T11:50:23.464Z,41.06
2024-02-29T11:52:53.529Z,41.04
2024-02-29T11:55:22.109Z,40.80
2024-02-29T11:57:50.330Z,40.58
2024-02-29T12:00:18.924Z,39.79
2024-02-29T12:02:47.081Z,40.13
2024-02-29T12:05:17.845Z,39.58
2024-02-29T12:07:46.989Z,39.97
2024-02-29T12:10:16.839Z,39.97
2024-02-29T12:12:46.190Z,40.06
2024-02-29T12:15:16.020Z,40.40
2024-02-29T12:17:44.874Z,40.18
2024-02-29T12:20:18.498Z,40.21
2024-02-29T12:22:50.308Z,40.59
2024-02-29T12:25:23.062Z,40.33
2024-02-29T12:27:51.229Z,39.59
2024-02-29T12:30:21.748Z,39.69
2024-02-29T12:32:55.486Z,40.15
2024-02-29T12:35:28.676Z,39.97
2024-02-29T12:37:57.101Z,39.69
2024-02-29T12:40:27.304Z,39.87
2024-02-29T12:42:55.531Z,40.12
2024-02-29T12:45:24.013Z,40.65
2024-02-29T12:47:52.072Z,40.02
2024-02-29T12:50:22.520Z,39.73
2024-02-29T12:52:55.526Z,40.27
2024-02-29T12:55:24.311Z,40.02
2024-02-29T12:57:52.285Z,40.62
2024-02-29T13:00:26.057Z,39.50
2024-02-29T13:02:54.282Z,40.42
2024-02-29T13:05:22.674Z,40.55
2024-02-29T13:07:51.427Z,40.81
2024-02-29T13:10:21.184Z,40.88
2024-02-29T13:12:54.468Z,40.70
2024-02-29T13:15:25.844Z,40.05
2024-02-29T13:17:53.892Z,40.33
2024-02-29T13:20:22.168Z,40.13
2024-02-29T13:22:50.068Z,40.11
2024-02-29T13:25:18.545Z,39.82
2024-02-29T13:27:46.461Z,40.20
2024-02-29T13:30:16.050Z,39.60
2024-02-29T13:32:45.441Z,39.94
2024-02-29T13:35:13.831Z,39.86
2024-02-29T13:37:42.643Z,40.55
2024-02-29T13:40:12.017Z,40.74
2024-02-29T13:42:45.342Z,40.68
2024-02-29T13:45:14.357Z,40.03
2024-02-29T13:47:52.350Z,40.18
2024-02-29T13:50:26.707Z,40.20
2024-02-29T13:52:57.352Z,39.98
2024-02-29T13:55:34.406Z,40.53
2024-02-29T13:58:02.453Z,40.76
2024-02-29T14:00:32.450Z,41.46
2024-02-29T14:03:00.435Z,41.47
2024-02-29T14:05:28.728Z,41.72
2024-02-29T14:07:57.289Z,40.97
2024-02-29T14:10:25.689Z,41.06
2024-02-29T14:12:53.840Z,41.25
2024-02-29T14:15:23.477Z,42.13
2024-02-29T14:17:52.024Z,42.23
2024-02-29T14:20:21.434Z,42.05
2024-02-29T14:22:49.471Z,42.77
2024-02-29T14:25:36.416Z,42.35
2024-02-29T14:28:04.979Z,42.34
2024-02-29T14:30:40.945Z,42.00
2024-02-29T14:33:58.606Z,42.61
2024-02-29T14:39:42.895Z,42.30
2024-02-29T14:39:57.658Z,42.35
2024-02-29T14:42:26.187Z,41.73
2024-02-29T14:44:54.556Z,42.17
2024-02-29T14:47:23.493Z,42.17
2024-02-29T14:49:52.552Z,42.22
2024-02-29T14:52:20.676Z,42.75
2024-02-29T14:54:49.748Z,42.35
2024-02-29T14:57:17.758Z,42.65
2024-02-29T14:59:47.987Z,42.72
2024-02-29T15:02:16.523Z,42.99
2024-02-29T15:04:45.735Z,42.35
2024-02-29T15:07:14.302Z,42.58
2024-02-29T15:09:42.704Z,42.71
2024-02-29T15:12:10.654Z,42.22
2024-02-29T15:14:39.071Z,42.27
2024-02-29T15:17:06.981Z,42.92
2024-02-29T15:19:36.105Z,43.81
2024-02-29T15:22:04.419Z,43.45
2024-02-29T15:24:32.905Z,43.00
2024-02-29T15:27:01.018Z,43.40
2024-02-29T15:29:29.532Z,43.27
2024-02-29T15:31:57.367Z,43.90
2024-02-29T15:34:25.916Z,43.50
2024-02-29T15:36:55.127Z,43.19
2024-02-29T15:39:23.666Z,43.83
2024-02-29T15:41:51.700Z,43.22
2024-02-29T15:44:20.132Z,43.43
2024-02-29T15:46:48.079Z,43.55
2024-02-29T15:49:16.494Z,43.21
2024-02-29T15:51:44.462Z,43.68
2024-02-29T15:54:12.753Z,43.41
2024-02-29T15:56:40.754Z,43.47
2024-02-29T15:59:10.640Z,43.63
2024-02-29T16:01:38.835Z,43.39
2024-02-29T16:04:07.436Z,43.85
2024-02-29T16:06:35.386Z,43.66
2024-02-29T16:09:03.689Z,44.14
2024-02-29T16:11:31.670Z,43.58
2024-02-29T16:13:59.986Z,44.07
2024-02-29T16:16:29.425Z,43.62
2024-02-29T16:18:57.818Z,43.64
2024-02-29T16:21:28.132Z,43.66
2024-02-29T16:23:56.791Z,43.99
2024-02-29T16:26:24.902Z,43.81
2024-02-29T16:28:55.402Z,43.71
2024-02-29T16:31:23.416Z,44.82
2024-02-29T16:33:51.709Z,43.73
2024-02-29T16:36:20.353Z,45.07
2024-02-29T16:38:48.608Z,44.94
2024-02-29T16:41:16.512Z,44.20
2024-02-29T16:43:44.881Z,45.03
2024-02-29T16:46:13.176Z,44.96
2024-02-29T16:48:41.864Z,44.77
2024-02-29T16:51:09.907Z,45.16
2024-02-29T16:53:38.077Z,44.46
2024-02-29T16:56:06.117Z,44.28
2024-02-29T16:58:34.518Z,44.71
2024-02-29T17:01:05.585Z,45.26
2024-02-29T17:03:39.053Z,45.03
2024-02-29T17:06:10.472Z,44.93
2024-02-29T17:08:38.912Z,45.47
2024-02-29T17:11:07.822Z,45.25
2024-02-29T17:13:44.730Z,45.30
2024-02-29T17:16:14.414Z,45.65
2024-02-29T17:18:43.512Z,45.93
2024-02-29T17:21:12.145Z,45.64
2024-02-29T17:23:40.693Z,46.53
2024-02-29T17:26:21.776Z,45.42
2024-02-29T17:28:52.812Z,46.26
2024-02-29T17:31:24.106Z,45.85
2024-02-29T17:33:53.112Z,46.20
2024-02-29T17:36:21.018Z,46.75
2024-02-29T17:38:49.395Z,46.81
2024-02-29T17:41:17.720Z,46.88
2024-02-29T17:43:46.087Z,46.82
2024-02-29T17:46:14.082Z,45.87
2024-02-29T17:48:44.572Z,46.35
2024-02-29T17:51:12.513Z,46.83
2024-02-29T17:53:41.630Z,45.36
2024-02-29T17:56:09.610Z,46.18
2024-02-29T17:58:38.150Z,45.83
2024-02-29T18:03:52.514Z,46.02
2024-02-29T18:06:20.525Z,46.24
2024-02-29T18:08:49.860Z,46.22
2024-02-29T18:11:18.016Z,46.06
2024-02-29T18:13:46.280Z,46.18
2024-02-29T18:16:15.526Z,46.12
2024-02-29T18:18:44.571Z,45.84
2024-02-29T18:21:19.812Z,45.88
2024-02-29T18:23:48.402Z,45.34
2024-02-29T18:26:16.639Z,46.56
2024-02-29T18:28:45.032Z,46.71
2024-02-29T18:31:13.590Z,45.90
2024-02-29T18:33:42.674Z,45.67
2024-02-29T18:36:11.164Z,45.90
2024-02-29T18:38:39.493Z,45.92
2024-02-29T18:41:07.361Z,45.99
2024-02-29T18:43:38.158Z,46.08
2024-02-29T18:46:07.158Z,45.53
2024-02-29T18:48:41.025Z,44.93
2024-02-29T18:51:10.165Z,46.26
2024-02-29T18:54:04.408Z,45.25
2024-02-29T18:56:32.767Z,46.01
2024-02-29T18:59:01.118Z,45.71
2024-02-29T19:01:29.145Z,45.91
2024-02-29T19:03:58.587Z,45.60
2024-02-29T19:06:26.971Z,45.86
2024-02-29T19:08:55.147Z,46.16
2024-02-29T19:11:23.366Z,45.82
2024-02-29T19:13:52.088Z,45.59
2024-02-29T19:16:20.739Z,45.88
2024-02-29T19:18:49.191Z,45.74
2024-02-29T19:21:17.235Z,45.25
2024-02-29T19:23:45.724Z,45.64
2024-02-29T19:26:14.580Z,45.49
2024-02-29T19:28:48.939Z,44.95
